Station Historical Data
Daily Summary for November 3, 2017 Units:  Metric    English   Both
« Previous Day
Next Day »
Daily Weekly Monthly Yearly Custom
  High: Low: Average:
Temperature: 24.4 °C 13.1 °C 18.1 °C
Dew Point: 18.5 °C 11.9 °C 15.4 °C
Humidity: 94% 66% 86%
Wind Speed: 7.4km/h 0km/h 0.3km/h
Wind Gust: 8km/h - -
Wind- - WSW
Pressure: 1023.6 hPa 1020.2 hPa -
Precipitation: 0 mm    
Historical Graphs
 
 
Tabular Data for November 3, 2017
Time Temperature Dew Point Pressure Wind Wind Speed Wind Gust Humidity Rainfall Rate (Hourly) solar Conditions
00:01 15.2 °C 13.6 °C 1023.2 hPa Calm     90% 0 mm WeatherDisplay:10.37 W/m2 CLR
00:06 15.2 °C 13.6 °C 1023.2 hPa Calm     90% 0 mm WeatherDisplay:10.37 W/m2 CLR
00:11 15.1 °C 13.5 °C 1023.2 hPa Calm     90% 0 mm WeatherDisplay:10.37 W/m2 CLR
00:16 15.1 °C 13.4 °C 1023.2 hPa Calm     90% 0 mm WeatherDisplay:10.37 W/m2 CLR
00:21 15 °C 13.4 °C 1023.2 hPa Calm     90% 0 mm WeatherDisplay:10.37 W/m2 CLR
00:26 14.9 °C 13.5 °C 1023.2 hPa Calm     91% 0 mm WeatherDisplay:10.37 W/m2 CLR
00:31 14.9 °C 13.4 °C 1023.2 hPa Calm     91% 0 mm WeatherDisplay:10.37 W/m2 CLR
00:36 14.8 °C 13.4 °C 1023.2 hPa Calm     91% 0 mm WeatherDisplay:10.37 W/m2 CLR
00:41 14.8 °C 13.4 °C 1023.2 hPa Calm     91% 0 mm WeatherDisplay:10.37 W/m2 CLR
00:47 14.7 °C 13.3 °C 1023.2 hPa Calm     91% 0 mm WeatherDisplay:10.37 W/m2 CLR
00:52 14.7 °C 13.2 °C 1023.2 hPa Calm     91% 0 mm WeatherDisplay:10.37 W/m2 CLR
00:57 14.7 °C 13.3 °C 1022.9 hPa Calm     91% 0 mm WeatherDisplay:10.37 W/m2 CLR
01:02 14.7 °C 13.3 °C 1023.2 hPa Calm     91% 0 mm WeatherDisplay:10.37 W/m2 CLR
01:07 14.8 °C 13.5 °C 1022.9 hPa Calm     92% 0 mm WeatherDisplay:10.37 W/m2 CLR
01:12 14.8 °C 13.5 °C 1022.9 hPa Calm     92% 0 mm WeatherDisplay:10.37 W/m2 CLR
01:17 14.8 °C 13.5 °C 1022.9 hPa Calm     92% 0 mm WeatherDisplay:10.37 W/m2 CLR
01:22 14.8 °C 13.6 °C 1022.9 hPa Calm     92% 0 mm WeatherDisplay:10.37 W/m2 CLR
01:27 14.8 °C 13.6 °C 1022.9 hPa Calm     92% 0 mm WeatherDisplay:10.37 W/m2 CLR
01:32 14.8 °C 13.6 °C 1022.6 hPa Calm     92% 0 mm WeatherDisplay:10.37 W/m2 CLR
01:37 14.8 °C 13.5 °C 1022.6 hPa Calm     92% 0 mm WeatherDisplay:10.37 W/m2 CLR
01:42 14.7 °C 13.2 °C 1022.6 hPa Calm     91% 0 mm WeatherDisplay:10.37 W/m2 CLR
01:47 14.6 °C 13.3 °C 1022.6 hPa Calm     92% 0 mm WeatherDisplay:10.37 W/m2 CLR
01:52 14.6 °C 13.3 °C 1022.6 hPa Calm     92% 0 mm WeatherDisplay:10.37 W/m2 CLR
01:57 14.6 °C 13.3 °C 1022.6 hPa Calm     92% 0 mm WeatherDisplay:10.37 W/m2 CLR
02:02 14.6 °C 13.3 °C 1022.6 hPa Calm     92% 0 mm WeatherDisplay:10.37 W/m2 CLR
02:07 14.6 °C 13.3 °C 1022.6 hPa Calm     92% 0 mm WeatherDisplay:10.37 W/m2 CLR
02:12 14.7 °C 13.4 °C 1022.2 hPa Calm     92% 0 mm WeatherDisplay:10.37 W/m2 CLR
02:17 14.8 °C 13.7 °C 1022.6 hPa Calm     93% 0 mm WeatherDisplay:10.37 W/m2 CLR
02:22 14.8 °C 13.7 °C 1022.6 hPa Calm     93% 0 mm WeatherDisplay:10.37 W/m2 CLR
02:27 14.8 °C 13.6 °C 1022.6 hPa Calm     92% 0 mm WeatherDisplay:10.37 W/m2 CLR
02:33 14.8 °C 13.5 °C 1022.6 hPa Calm     92% 0 mm WeatherDisplay:10.37 W/m2 CLR
02:38 14.7 °C 13.4 °C 1022.6 hPa Calm     92% 0 mm WeatherDisplay:10.37 W/m2 CLR
02:43 14.4 °C 13.2 °C 1022.6 hPa Calm     92% 0 mm WeatherDisplay:10.37 W/m2 CLR
02:48 14.3 °C 13.1 °C 1022.2 hPa Calm     92% 0 mm WeatherDisplay:10.37 W/m2 CLR
02:53 14.3 °C 13.1 °C 1022.2 hPa Calm     92% 0 mm WeatherDisplay:10.37 W/m2 CLR
02:58 14.3 °C 13.1 °C 1022.2 hPa Calm     92% 0 mm WeatherDisplay:10.37 W/m2 CLR
03:03 14.4 °C 13.3 °C 1022.6 hPa Calm     93% 0 mm WeatherDisplay:10.37 W/m2 CLR
03:08 14.6 °C 13.4 °C 1022.6 hPa Calm     93% 0 mm WeatherDisplay:10.37 W/m2 CLR
03:13 14.6 °C 13.4 °C 1022.6 hPa Calm     93% 0 mm WeatherDisplay:10.37 W/m2 CLR
03:18 14.6 °C 13.4 °C 1022.6 hPa Calm     93% 0 mm WeatherDisplay:10.37 W/m2 CLR
03:23 14.4 °C 13.1 °C 1022.6 hPa Calm     92% 0 mm WeatherDisplay:10.37 W/m2 CLR
03:28 14.1 °C 12.8 °C 1022.6 hPa Calm     92% 0 mm WeatherDisplay:10.37 W/m2 CLR
03:33 13.9 °C 12.7 °C 1022.6 hPa Calm     92% 0 mm WeatherDisplay:10.37 W/m2 CLR
03:38 13.9 °C 12.6 °C 1022.6 hPa Calm     92% 0 mm WeatherDisplay:10.37 W/m2 CLR
03:43 13.8 °C 12.5 °C 1022.6 hPa Calm     92% 0 mm WeatherDisplay:10.37 W/m2 CLR
03:49 13.7 °C 12.4 °C 1022.6 hPa Calm     92% 0 mm WeatherDisplay:10.37 W/m2 CLR
03:54 13.7 °C 12.4 °C 1022.6 hPa Calm     92% 0 mm WeatherDisplay:10.37 W/m2 CLR
03:59 13.7 °C 12.4 °C 1022.6 hPa Calm     92% 0 mm WeatherDisplay:10.37 W/m2 CLR
04:04 13.6 °C 12.3 °C 1022.6 hPa Calm     92% 0 mm WeatherDisplay:10.37 W/m2 CLR
04:09 13.6 °C 12.3 °C 1022.6 hPa Calm     92% 0 mm WeatherDisplay:10.37 W/m2 CLR
04:14 13.6 °C 12.3 °C 1022.6 hPa Calm     92% 0 mm WeatherDisplay:10.37 W/m2 CLR
04:19 13.5 °C 12.2 °C 1022.6 hPa Calm     92% 0 mm WeatherDisplay:10.37 W/m2 CLR
04:24 13.5 °C 12.2 °C 1022.6 hPa Calm     92% 0 mm WeatherDisplay:10.37 W/m2 CLR
04:29 13.5 °C 12.2 °C 1022.6 hPa Calm     92% 0 mm WeatherDisplay:10.37 W/m2 CLR
04:34 13.6 °C 12.4 °C 1022.6 hPa Calm     93% 0 mm WeatherDisplay:10.37 W/m2 CLR
04:39 13.6 °C 12.5 °C 1022.6 hPa Calm     93% 0 mm WeatherDisplay:10.37 W/m2 CLR
04:44 13.6 °C 12.5 °C 1022.6 hPa Calm     93% 0 mm WeatherDisplay:10.37 W/m2 CLR
04:49 13.6 °C 12.4 °C 1022.6 hPa Calm     93% 0 mm WeatherDisplay:10.37 W/m2 CLR
04:54 13.6 °C 12.5 °C 1022.6 hPa Calm     93% 0 mm WeatherDisplay:10.37 W/m2 CLR
04:59 13.6 °C 12.4 °C 1022.6 hPa Calm     93% 0 mm WeatherDisplay:10.37 W/m2 CLR
05:04 13.4 °C 12.2 °C 1022.6 hPa Calm     92% 0 mm WeatherDisplay:10.37 W/m2 CLR
05:09 13.4 °C 12.1 °C 1022.6 hPa Calm     92% 0 mm WeatherDisplay:10.37 W/m2 CLR
05:14 13.3 °C 12.1 °C 1022.6 hPa Calm     92% 0 mm WeatherDisplay:10.37 W/m2 CLR
05:19 13.3 °C 12.2 °C 1022.6 hPa Calm     93% 0 mm WeatherDisplay:10.37 W/m2 CLR
05:24 13.3 °C 12.2 °C 1022.6 hPa Calm     93% 0 mm WeatherDisplay:10.37 W/m2 CLR
05:29 13.3 °C 12.2 °C 1022.6 hPa Calm     93% 0 mm WeatherDisplay:10.37 W/m2 CLR
05:34 13.3 °C 12.2 °C 1022.6 hPa Calm     93% 0 mm WeatherDisplay:10.37 W/m2 CLR
05:39 13.3 °C 12.2 °C 1022.2 hPa Calm     93% 0 mm WeatherDisplay:10.37 W/m2 CLR
05:44 13.3 °C 12.2 °C 1022.6 hPa Calm     93% 0 mm WeatherDisplay:10.37 W/m2 CLR
05:49 13.3 °C 12.2 °C 1022.6 hPa Calm     93% 0 mm WeatherDisplay:10.37 W/m2 CLR
05:54 13.3 °C 12.2 °C 1022.6 hPa Calm     93% 0 mm WeatherDisplay:10.37 W/m2 CLR
05:59 13.3 °C 12.2 °C 1022.6 hPa Calm     93% 0 mm WeatherDisplay:10.37 W/m2 CLR
06:04 13.2 °C 12.1 °C 1022.6 hPa Calm     93% 0 mm WeatherDisplay:10.37 W/m2 CLR
06:10 13.2 °C 12.1 °C 1022.6 hPa Calm     93% 0 mm WeatherDisplay:10.37 W/m2 CLR
06:15 13.2 °C 12.1 °C 1022.6 hPa Calm     93% 0 mm WeatherDisplay:10.37 W/m2 CLR
06:20 13.1 °C 12 °C 1022.6 hPa Calm     93% 0 mm WeatherDisplay:10.37 W/m2 CLR
06:25 13.1 °C 12 °C 1022.6 hPa Calm     93% 0 mm WeatherDisplay:10.37 W/m2 CLR
06:30 13.1 °C 12 °C 1022.6 hPa Calm     93% 0 mm WeatherDisplay:10.37 W/m2 CLR
06:35 13.1 °C 12 °C 1022.6 hPa Calm     93% 0 mm WeatherDisplay:10.37 W/m2 CLR
06:40 13.1 °C 12 °C 1022.6 hPa Calm     93% 0 mm WeatherDisplay:10.37 W/m2 CLR
06:45 13.1 °C 12 °C 1022.6 hPa Calm     93% 0 mm WeatherDisplay:10.37 W/m2 CLR
06:50 13.1 °C 11.9 °C 1022.6 hPa Calm     93% 0 mm WeatherDisplay:10.37 W/m2 CLR
06:55 13.1 °C 12 °C 1022.6 hPa Calm     93% 0 mm WeatherDisplay:10.37 W/m2 SCT
07:00 13.3 °C 12.2 °C 1022.6 hPa Calm     93% 0 mm WeatherDisplay:10.37 W/m2 SCT
07:05 13.4 °C 12.3 °C 1022.9 hPa Calm     93% 0 mm WeatherDisplay:10.37 W/m2 SCT
07:10 13.4 °C 12.3 °C 1022.9 hPa Calm     93% 0 mm WeatherDisplay:10.37 W/m2 SCT
07:15 13.3 °C 12.2 °C 1022.9 hPa Calm     93% 0 mm WeatherDisplay:10.37 W/m2 SCT
07:20 13.2 °C 12.1 °C 1022.9 hPa Calm     93% 0 mm WeatherDisplay:10.37 W/m2 SCT
07:25 13.2 °C 12.1 °C 1022.9 hPa Calm     93% 0 mm WeatherDisplay:10.37 W/m2 SCT
07:30 13.2 °C 12.1 °C 1022.9 hPa Calm     93% 0 mm WeatherDisplay:10.37 W/m2 SCT
07:35 13.3 °C 12.2 °C 1022.9 hPa Calm     93% 0 mm WeatherDisplay:10.37 W/m2 SCT
07:40 13.3 °C 12.2 °C 1022.9 hPa Calm     93% 0 mm WeatherDisplay:10.37 W/m2 SCT
07:45 13.3 °C 12.2 °C 1022.9 hPa Calm     93% 0 mm WeatherDisplay:10.37 W/m2 SCT
07:50 13.4 °C 12.3 °C 1022.9 hPa Calm     93% 0 mm WeatherDisplay:10.37 W/m2 SCT
07:55 13.7 °C 12.7 °C 1022.9 hPa Calm     94% 0 mm WeatherDisplay:10.37 W/m2 SCT
08:00 13.7 °C 12.8 °C 1022.9 hPa Calm     94% 0 mm WeatherDisplay:10.37 W/m2 SCT
08:05 13.7 °C 12.6 °C 1022.9 hPa Calm     93% 0 mm WeatherDisplay:10.37 W/m2 SCT
08:10 13.8 °C 12.7 °C 1022.9 hPa Calm     93% 0 mm WeatherDisplay:10.37 W/m2 SCT
08:11 13.8 °C 12.7 °C 1022.9 hPa Calm     93% 0 mm WeatherDisplay:10.37 W/m2 SCT
08:16 13.7 °C 12.6 °C 1022.9 hPa Calm     93% 0 mm WeatherDisplay:10.37 W/m2 SCT
08:21 13.7 °C 12.6 °C 1022.9 hPa Calm     93% 0 mm WeatherDisplay:10.37 W/m2 SCT
08:26 13.7 °C 12.6 °C 1022.9 hPa Calm     93% 0 mm WeatherDisplay:10.37 W/m2 SCT
08:31 13.8 °C 12.7 °C 1022.9 hPa Calm     93% 0 mm WeatherDisplay:10.37 W/m2 SCT
08:36 13.8 °C 12.7 °C 1022.9 hPa Calm     93% 0 mm WeatherDisplay:10.37 W/m2 SCT
08:42 13.9 °C 12.8 °C 1022.9 hPa Calm     93% 0 mm WeatherDisplay:10.37 W/m2 SCT
08:47 14 °C 12.9 °C 1023.2 hPa Calm     93% 0 mm WeatherDisplay:10.37 W/m2 SCT
08:52 14.1 °C 12.9 °C 1023.2 hPa Calm     93% 0 mm WeatherDisplay:10.37 W/m2 SCT
08:57 14.1 °C 13 °C 1023.2 hPa Calm     93% 0 mm WeatherDisplay:10.37 W/m2 SCT
09:02 14.1 °C 13 °C 1023.2 hPa Calm     93% 0 mm WeatherDisplay:10.37 W/m2 SCT
09:07 14.2 °C 13.1 °C 1023.2 hPa Calm     93% 0 mm WeatherDisplay:10.37 W/m2 SCT
09:12 14.3 °C 13.2 °C 1023.2 hPa Calm     93% 0 mm WeatherDisplay:10.37 W/m2 SCT
09:17 14.5 °C 13.6 °C 1023.6 hPa Calm     94% 0 mm WeatherDisplay:10.37 W/m2 SCT
09:22 14.7 °C 13.7 °C 1023.6 hPa Calm     94% 0 mm WeatherDisplay:10.37 W/m2 SCT
09:27 14.9 °C 13.9 °C 1023.6 hPa Calm     94% 0 mm WeatherDisplay:10.37 W/m2 SCT
09:32 15.1 °C 14.1 °C 1023.6 hPa Calm     94% 0 mm WeatherDisplay:10.37 W/m2 SCT
09:37 15.3 °C 14.3 °C 1023.6 hPa Calm     94% 0 mm WeatherDisplay:10.37 W/m2 SCT
09:42 15.4 °C 14.4 °C 1023.6 hPa Calm     94% 0 mm WeatherDisplay:10.37 W/m2 SCT
09:47 15.6 °C 14.6 °C 1023.6 hPa Calm     94% 0 mm WeatherDisplay:10.37 W/m2 SCT
09:52 15.7 °C 14.8 °C 1023.6 hPa Calm     94% 0 mm WeatherDisplay:10.37 W/m2 SCT
09:57 15.9 °C 14.9 °C 1023.6 hPa Calm     94% 0 mm WeatherDisplay:10.37 W/m2 SCT
10:02 16.1 °C 14.9 °C 1023.6 hPa Calm     93% 0 mm WeatherDisplay:10.37 W/m2 BKN
10:07 16.3 °C 15.2 °C 1023.6 hPa Calm     93% 0 mm WeatherDisplay:10.37 W/m2 BKN
10:12 16.6 °C 15.4 °C 1023.6 hPa Calm     93% 0 mm WeatherDisplay:10.37 W/m2 BKN
10:17 16.9 °C 15.6 °C 1023.6 hPa Calm     92% 0 mm WeatherDisplay:10.37 W/m2 BKN
10:23 17.3 °C 15.8 °C 1023.6 hPa NNW 1.9 km/h   91% 0 mm WeatherDisplay:10.37 W/m2 BKN
10:28 17.6 °C 15.7 °C 1023.6 hPa WNW 1.6 km/h 1.6 km/h 89% 0 mm WeatherDisplay:10.37 W/m2 BKN
10:33 17.9 °C 16.1 °C 1023.6 hPa Calm     89% 0 mm WeatherDisplay:10.37 W/m2 BKN
10:38 18.2 °C 16 °C 1023.6 hPa Calm     87% 0 mm WeatherDisplay:10.37 W/m2 BKN
10:40 18.4 °C 16.1 °C 1023.6 hPa Calm     86% 0 mm WeatherDisplay:10.37 W/m2 BKN
10:46 19.1 °C 16.6 °C 1023.6 hPa Calm     85% 0 mm WeatherDisplay:10.37 W/m2 BKN
10:51 19.7 °C 16.3 °C 1023.6 hPa Calm     81% 0 mm WeatherDisplay:10.37 W/m2 BKN
10:56 20 °C 16.8 °C 1023.6 hPa Calm     82% 0 mm WeatherDisplay:10.37 W/m2 BKN
11:01 20.2 °C 16.4 °C 1023.6 hPa WNW 1.9 km/h 1.9 km/h 79% 0 mm WeatherDisplay:10.37 W/m2 BKN
11:06 20.7 °C 16.9 °C 1023.6 hPa WNW 1.9 km/h   79% 0 mm WeatherDisplay:10.37 W/m2 BKN
11:11 21.3 °C 16.9 °C 1023.6 hPa WNW 1.9 km/h   76% 0 mm WeatherDisplay:10.37 W/m2 BKN
11:16 21.7 °C 17.1 °C 1023.6 hPa Calm     75% 0 mm WeatherDisplay:10.37 W/m2 BKN
11:21 21.8 °C 17.2 °C 1023.6 hPa Calm     75% 0 mm WeatherDisplay:10.37 W/m2 BKN
11:26 21.9 °C 17.3 °C 1023.2 hPa NW 1.9 km/h   75% 0 mm WeatherDisplay:10.37 W/m2 BKN
11:31 22.1 °C 17.4 °C 1023.6 hPa WSW 3.7 km/h 3.7 km/h 75% 0 mm WeatherDisplay:10.37 W/m2 BKN
11:36 22.4 °C 17.5 °C 1023.2 hPa Calm     74% 0 mm WeatherDisplay:10.37 W/m2 BKN
11:41 22.4 °C 17.5 °C 1023.2 hPa Calm     74% 0 mm WeatherDisplay:10.37 W/m2 BKN
11:46 22.6 °C 17.9 °C 1023.2 hPa Calm     75% 0 mm WeatherDisplay:10.37 W/m2 BKN
11:51 22.6 °C 17.4 °C 1023.2 hPa Calm     73% 0 mm WeatherDisplay:10.37 W/m2 BKN
11:56 22.6 °C 17.3 °C 1023.2 hPa Calm     72% 0 mm WeatherDisplay:10.37 W/m2 BKN
12:01 22.6 °C 17.4 °C 1023.2 hPa WSW 1.9 km/h   73% 0 mm WeatherDisplay:10.37 W/m2 BKN
12:03 22.6 °C 17.4 °C 1023.2 hPa Calm     73% 0 mm WeatherDisplay:10.37 W/m2 BKN
12:08 22.6 °C 17.4 °C 1023.2 hPa SW 3.7 km/h 3.7 km/h 73% 0 mm WeatherDisplay:10.37 W/m2 BKN
12:13 22.5 °C 17.4 °C 1023.2 hPa Calm     73% 0 mm WeatherDisplay:10.37 W/m2 SCT
12:18 22.6 °C 17.4 °C 1022.9 hPa Calm     73% 0 mm WeatherDisplay:10.37 W/m2 SCT
12:23 22.7 °C 17.8 °C 1022.9 hPa Calm     74% 0 mm WeatherDisplay:10.37 W/m2 SCT
12:28 22.8 °C 17.7 °C 1022.9 hPa WNW 1.9 km/h 1.9 km/h 73% 0 mm WeatherDisplay:10.37 W/m2 SCT
12:33 23 °C 17.9 °C 1022.9 hPa Calm     73% 0 mm WeatherDisplay:10.37 W/m2 SCT
12:38 23.2 °C 17.8 °C 1022.9 hPa WNW 3.7 km/h 3.7 km/h 72% 0 mm WeatherDisplay:10.37 W/m2 SCT
12:43 23.3 °C 17.8 °C 1022.6 hPa West 5.6 km/h 5.6 km/h 71% 0 mm WeatherDisplay:10.37 W/m2 SCT
12:48 23.3 °C 17.6 °C 1022.6 hPa SSE 3.7 km/h 3.7 km/h 70% 0 mm WeatherDisplay:10.37 W/m2 SCT
12:53 23.3 °C 18.2 °C 1022.6 hPa Calm     73% 0 mm WeatherDisplay:10.37 W/m2 SCT
12:58 23.3 °C 18 °C 1022.6 hPa WNW 1.9 km/h   72% 0 mm WeatherDisplay:10.37 W/m2 SCT
13:03 23.4 °C 18.1 °C 1022.2 hPa WSW 1.9 km/h 1.9 km/h 72% 0 mm WeatherDisplay:10.37 W/m2 BKN
13:08 23.6 °C 18.1 °C 1022.2 hPa WNW 3.7 km/h 3.7 km/h 71% 0 mm WeatherDisplay:10.37 W/m2 BKN
13:13 23.6 °C 18.1 °C 1022.2 hPa WNW 1.9 km/h 1.9 km/h 71% 0 mm WeatherDisplay:10.37 W/m2 BKN
13:18 23.7 °C 18.4 °C 1022.2 hPa West 1.9 km/h   72% 0 mm WeatherDisplay:10.37 W/m2 BKN
13:23 23.8 °C 18 °C 1022.2 hPa West 1.9 km/h 1.9 km/h 70% 0 mm WeatherDisplay:10.37 W/m2 BKN
13:28 23.8 °C 18 °C 1022.2 hPa Calm     70% 0 mm WeatherDisplay:10.37 W/m2 BKN
13:34 23.7 °C 18.1 °C 1021.9 hPa WNW 1.9 km/h   71% 0 mm WeatherDisplay:10.37 W/m2 BKN
13:39 23.6 °C 18 °C 1021.9 hPa Calm   0.3 km/h 71% 0 mm WeatherDisplay:10.37 W/m2 BKN
13:44 23.4 °C 18.3 °C 1021.9 hPa WNW 1.9 km/h   73% 0 mm WeatherDisplay:10.37 W/m2 BKN
13:49 23.8 °C 18.3 °C 1021.6 hPa WNW 1.9 km/h 1.9 km/h 71% 0 mm WeatherDisplay:10.37 W/m2 BKN
13:54 24.2 °C 18.2 °C 1021.6 hPa ENE 5.6 km/h 5.6 km/h 69% 0 mm WeatherDisplay:10.37 W/m2 BKN
13:59 24.2 °C 17.9 °C 1021.6 hPa SSE 1.9 km/h 1.9 km/h 68% 0 mm WeatherDisplay:10.37 W/m2 BKN
14:04 23.9 °C 17.9 °C 1021.6 hPa Calm     69% 0 mm WeatherDisplay:10.37 W/m2 BKN
14:09 23.9 °C 17.9 °C 1021.6 hPa Calm     69% 0 mm WeatherDisplay:10.37 W/m2 BKN
14:14 23.9 °C 17.8 °C 1021.6 hPa ESE 3.7 km/h 3.7 km/h 69% 0 mm WeatherDisplay:10.37 W/m2 BKN
14:19 23.8 °C 18.1 °C 1021.2 hPa Calm     70% 0 mm WeatherDisplay:10.37 W/m2 BKN
14:24 23.9 °C 17.8 °C 1021.2 hPa SSW 7.4 km/h 7.4 km/h 69% 0 mm WeatherDisplay:10.37 W/m2 BKN
14:29 24.2 °C 17.9 °C 1021.2 hPa West 1.9 km/h 1.9 km/h 68% 0 mm WeatherDisplay:10.37 W/m2 BKN
14:34 24.4 °C 17.6 °C 1021.2 hPa WNW 3.7 km/h 3.7 km/h 66% 0 mm WeatherDisplay:10.37 W/m2 BKN
14:39 24.4 °C 17.9 °C 1021.2 hPa WNW 1.9 km/h 1.9 km/h 67% 0 mm WeatherDisplay:10.37 W/m2 BKN
14:44 24.3 °C 17.8 °C 1021.2 hPa WNW 1.9 km/h 1.9 km/h 67% 0 mm WeatherDisplay:10.37 W/m2 BKN
14:49 24.1 °C 17.8 °C 1020.9 hPa Calm     68% 0 mm WeatherDisplay:10.37 W/m2 BKN
14:54 23.9 °C 17.9 °C 1020.9 hPa Calm     69% 0 mm WeatherDisplay:10.37 W/m2 BKN
15:00 23.8 °C 17.8 °C 1020.9 hPa Calm     69% 0 mm WeatherDisplay:10.37 W/m2 BKN
15:05 23.8 °C 17.7 °C 1020.9 hPa West 1.9 km/h   69% 0 mm WeatherDisplay:10.37 W/m2 OVC
15:10 23.7 °C 18.2 °C 1020.9 hPa Calm     71% 0 mm WeatherDisplay:10.37 W/m2 OVC
15:15 23.7 °C 18.2 °C 1020.5 hPa Calm     71% 0 mm WeatherDisplay:10.37 W/m2 OVC
15:20 23.8 °C 18.1 °C 1020.5 hPa Calm     70% 0 mm WeatherDisplay:10.37 W/m2 OVC
15:25 23.8 °C 17.8 °C 1020.5 hPa Calm   1.6 km/h 69% 0 mm WeatherDisplay:10.37 W/m2 OVC
15:30 23.7 °C 17.9 °C 1020.5 hPa Calm   1.6 km/h 70% 0 mm WeatherDisplay:10.37 W/m2 OVC
15:35 23.6 °C 18.1 °C 1020.5 hPa Calm   1.6 km/h 71% 0 mm WeatherDisplay:10.37 W/m2 OVC
15:40 23.5 °C 18.2 °C 1020.5 hPa Calm     72% 0 mm WeatherDisplay:10.37 W/m2 OVC
15:45 23.4 °C 18.1 °C 1020.5 hPa Calm     72% 0 mm WeatherDisplay:10.37 W/m2 OVC
15:50 23.3 °C 18.4 °C 1020.5 hPa Calm   1.6 km/h 74% 0 mm WeatherDisplay:10.37 W/m2 OVC
15:55 23.2 °C 17.9 °C 1020.5 hPa Calm   1.6 km/h 72% 0 mm WeatherDisplay:10.37 W/m2 OVC
16:00 23.2 °C 17.6 °C 1020.5 hPa Calm   1.6 km/h 71% 0 mm WeatherDisplay:10.37 W/m2 OVC
16:05 23.1 °C 17.8 °C 1020.5 hPa Calm   1.6 km/h 72% 0 mm WeatherDisplay:10.37 W/m2 BKN
16:10 23.1 °C 17.8 °C 1020.5 hPa Calm   1.6 km/h 72% 0 mm WeatherDisplay:10.37 W/m2 BKN
16:15 23.2 °C 18.3 °C 1020.5 hPa Calm   1.6 km/h 74% 0 mm WeatherDisplay:10.37 W/m2 BKN
16:20 23.1 °C 18 °C 1020.5 hPa Calm     73% 0 mm WeatherDisplay:10.37 W/m2 BKN
16:25 23.1 °C 18 °C 1020.5 hPa Calm   1.6 km/h 73% 0 mm WeatherDisplay:10.37 W/m2 BKN
16:30 23.1 °C 18.4 °C 1020.5 hPa Calm     75% 0 mm WeatherDisplay:10.37 W/m2 BKN
16:35 23 °C 18.1 °C 1020.5 hPa Calm   1.6 km/h 74% 0 mm WeatherDisplay:10.37 W/m2 BKN
16:40 22.9 °C 18.1 °C 1020.5 hPa Calm   1.6 km/h 74% 0 mm WeatherDisplay:10.37 W/m2 BKN
16:45 23 °C 18.1 °C 1020.5 hPa Calm   1.6 km/h 74% 0 mm WeatherDisplay:10.37 W/m2 BKN
16:50 23.1 °C 18.4 °C 1020.5 hPa Calm     75% 0 mm WeatherDisplay:10.37 W/m2 BKN
16:55 23.1 °C 17.9 °C 1020.2 hPa Calm   1.6 km/h 73% 0 mm WeatherDisplay:10.37 W/m2 BKN
17:00 23.1 °C 18.2 °C 1020.2 hPa Calm   3.2 km/h 74% 0 mm WeatherDisplay:10.37 W/m2 BKN
17:05 23 °C 18.1 °C 1020.2 hPa Calm   1.6 km/h 74% 0 mm WeatherDisplay:10.37 W/m2 BKN
17:10 22.9 °C 18.1 °C 1020.2 hPa Calm     74% 0 mm WeatherDisplay:10.37 W/m2 BKN
17:15 22.9 °C 18.4 °C 1020.2 hPa Calm     76% 0 mm WeatherDisplay:10.37 W/m2 BKN
17:20 22.8 °C 18.3 °C 1020.2 hPa Calm     76% 0 mm WeatherDisplay:10.37 W/m2 BKN
17:25 22.7 °C 18.5 °C 1020.5 hPa Calm     77% 0 mm WeatherDisplay:10.37 W/m2 BKN
17:30 22.6 °C 18.4 °C 1020.5 hPa Calm     77% 0 mm WeatherDisplay:10.37 W/m2 BKN
17:35 22.6 °C 18.4 °C 1020.2 hPa Calm   8 km/h 77% 0 mm WeatherDisplay:10.37 W/m2 BKN
17:40 22.6 °C 18.5 °C 1020.2 hPa Calm     78% 0 mm WeatherDisplay:10.37 W/m2 BKN
17:45 22.5 °C 18.4 °C 1020.2 hPa Calm     78% 0 mm WeatherDisplay:10.37 W/m2 BKN
17:50 22.4 °C 18.4 °C 1020.2 hPa Calm   1.6 km/h 78% 0 mm WeatherDisplay:10.37 W/m2 BKN
17:55 22.2 °C 18.2 °C 1020.5 hPa Calm     78% 0 mm WeatherDisplay:10.37 W/m2 BKN
18:00 22.1 °C 18.3 °C 1020.5 hPa Calm   1.6 km/h 79% 0 mm WeatherDisplay:10.37 W/m2 BKN
18:05 21.9 °C 18.3 °C 1020.5 hPa Calm     80% 0 mm WeatherDisplay:10.37 W/m2 BKN
18:10 21.8 °C 18.4 °C 1020.5 hPa Calm   1.6 km/h 81% 0 mm WeatherDisplay:10.37 W/m2 BKN
18:15 21.7 °C 18.3 °C 1020.5 hPa Calm     81% 0 mm WeatherDisplay:10.37 W/m2 BKN
18:20 21.6 °C 18.2 °C 1020.5 hPa Calm     81% 0 mm WeatherDisplay:10.37 W/m2 BKN
18:25 21.4 °C 18.2 °C 1020.5 hPa Calm     82% 0 mm WeatherDisplay:10.37 W/m2 BKN
18:30 21.3 °C 18.1 °C 1020.5 hPa Calm     82% 0 mm WeatherDisplay:10.37 W/m2 BKN
18:35 21.1 °C 17.9 °C 1020.2 hPa Calm     82% 0 mm WeatherDisplay:10.37 W/m2 BKN
18:40 20.9 °C 17.9 °C 1020.2 hPa Calm     83% 0 mm WeatherDisplay:10.37 W/m2 BKN
18:45 20.7 °C 17.7 °C 1020.2 hPa Calm     83% 0 mm WeatherDisplay:10.37 W/m2 BKN
18:50 20.6 °C 17.7 °C 1020.2 hPa Calm     84% 0 mm WeatherDisplay:10.37 W/m2 BKN
18:55 20.3 °C 17.6 °C 1020.5 hPa Calm     84% 0 mm WeatherDisplay:10.37 W/m2 BKN
19:00 20.3 °C 17.4 °C 1020.2 hPa Calm     84% 0 mm WeatherDisplay:10.37 W/m2 BKN
19:05 20.2 °C 17.6 °C 1020.5 hPa Calm     85% 0 mm WeatherDisplay:10.37 W/m2 BKN
19:10 20 °C 17.4 °C 1020.5 hPa Calm     85% 0 mm WeatherDisplay:10.37 W/m2 BKN
19:15 19.9 °C 17.3 °C 1020.5 hPa Calm     85% 0 mm WeatherDisplay:10.37 W/m2 BKN
19:20 19.8 °C 17.4 °C 1020.5 hPa Calm     86% 0 mm WeatherDisplay:10.37 W/m2 BKN
19:25 19.7 °C 17.3 °C 1020.2 hPa Calm     86% 0 mm WeatherDisplay:10.37 W/m2 BKN
19:30 19.6 °C 17.2 °C 1020.2 hPa Calm     86% 0 mm WeatherDisplay:10.37 W/m2 BKN
19:35 19.5 °C 17.1 °C 1020.2 hPa Calm     86% 0 mm WeatherDisplay:10.37 W/m2 BKN
19:40 19.4 °C 17.1 °C 1020.2 hPa Calm     86% 0 mm WeatherDisplay:10.37 W/m2 BKN
19:45 19.3 °C 17.1 °C 1020.2 hPa Calm     87% 0 mm WeatherDisplay:10.37 W/m2 BKN
19:50 19.3 °C 17.1 °C 1020.2 hPa Calm     87% 0 mm WeatherDisplay:10.37 W/m2 BKN
19:55 19.2 °C 16.9 °C 1020.2 hPa Calm     87% 0 mm WeatherDisplay:10.37 W/m2 BKN
20:00 19.1 °C 17.1 °C 1020.2 hPa Calm     88% 0 mm WeatherDisplay:10.37 W/m2 BKN
20:05 19.1 °C 17.1 °C 1020.5 hPa Calm     88% 0 mm WeatherDisplay:10.37 W/m2 BKN
20:10 19.1 °C 17 °C 1020.2 hPa Calm     88% 0 mm WeatherDisplay:10.37 W/m2 BKN
20:15 19 °C 16.9 °C 1020.2 hPa Calm     88% 0 mm WeatherDisplay:10.37 W/m2 SCT
20:20 19 °C 16.9 °C 1020.5 hPa Calm     88% 0 mm WeatherDisplay:10.37 W/m2 SCT
20:25 18.9 °C 16.9 °C 1020.5 hPa Calm     88% 0 mm WeatherDisplay:10.37 W/m2 SCT
20:30 18.8 °C 16.8 °C 1020.5 hPa Calm     88% 0 mm WeatherDisplay:10.37 W/m2 SCT
20:35 18.7 °C 16.9 °C 1020.5 hPa Calm     89% 0 mm WeatherDisplay:10.37 W/m2 SCT
20:40 18.6 °C 16.8 °C 1020.5 hPa Calm     89% 0 mm WeatherDisplay:10.37 W/m2 SCT
20:45 18.6 °C 16.7 °C 1020.5 hPa Calm     89% 0 mm WeatherDisplay:10.37 W/m2 SCT
20:50 18.4 °C 16.6 °C 1020.5 hPa Calm     89% 0 mm WeatherDisplay:10.37 W/m2 SCT
20:55 18.4 °C 16.6 °C 1020.5 hPa Calm     89% 0 mm WeatherDisplay:10.37 W/m2 SCT
21:00 18.3 °C 16.6 °C 1020.5 hPa Calm     90% 0 mm WeatherDisplay:10.37 W/m2 SCT
21:05 18.3 °C 16.6 °C 1020.5 hPa Calm     90% 0 mm WeatherDisplay:10.37 W/m2 FEW
21:10 18.2 °C 16.6 °C 1020.5 hPa Calm     90% 0 mm WeatherDisplay:10.37 W/m2 FEW
21:15 18.2 °C 16.5 °C 1020.5 hPa Calm     90% 0 mm WeatherDisplay:10.37 W/m2 FEW
21:20 18.1 °C 16.4 °C 1020.5 hPa Calm     90% 0 mm WeatherDisplay:10.37 W/m2 FEW
21:25 18.1 °C 16.4 °C 1020.5 hPa Calm     90% 0 mm WeatherDisplay:10.37 W/m2 FEW
21:30 18 °C 16.3 °C 1020.5 hPa Calm     90% 0 mm WeatherDisplay:10.37 W/m2 FEW
21:35 17.9 °C 16.4 °C 1020.5 hPa Calm     91% 0 mm WeatherDisplay:10.37 W/m2 FEW
21:40 17.9 °C 16.4 °C 1020.5 hPa Calm     91% 0 mm WeatherDisplay:10.37 W/m2 FEW
21:45 17.9 °C 16.4 °C 1020.5 hPa Calm     91% 0 mm WeatherDisplay:10.37 W/m2 FEW
21:51 17.8 °C 16.3 °C 1020.5 hPa Calm     91% 0 mm WeatherDisplay:10.37 W/m2 FEW
21:56 17.8 °C 16.3 °C 1020.5 hPa Calm     91% 0 mm WeatherDisplay:10.37 W/m2 FEW
22:01 17.9 °C 16.6 °C 1020.5 hPa Calm     92% 0 mm WeatherDisplay:10.37 W/m2 FEW
22:06 17.9 °C 16.6 °C 1020.5 hPa SSW 1.9 km/h   92% 0 mm WeatherDisplay:10.37 W/m2 BKN
22:11 17.9 °C 16.6 °C 1020.5 hPa Calm     92% 0 mm WeatherDisplay:10.37 W/m2 BKN
22:16 18 °C 16.7 °C 1020.5 hPa Calm     92% 0 mm WeatherDisplay:10.37 W/m2 BKN
22:21 17.9 °C 16.4 °C 1020.5 hPa Calm     91% 0 mm WeatherDisplay:10.37 W/m2 BKN
22:26 17.9 °C 16.6 °C 1020.5 hPa Calm     92% 0 mm WeatherDisplay:10.37 W/m2 BKN
22:31 17.9 °C 16.4 °C 1020.5 hPa Calm     91% 0 mm WeatherDisplay:10.37 W/m2 BKN
22:36 17.7 °C 16.2 °C 1020.5 hPa Calm     91% 0 mm WeatherDisplay:10.37 W/m2 BKN
22:41 17.5 °C 16 °C 1020.5 hPa Calm     91% 0 mm WeatherDisplay:10.37 W/m2 BKN
22:46 17.4 °C 15.9 °C 1020.5 hPa Calm     91% 0 mm WeatherDisplay:10.37 W/m2 BKN
22:51 17.4 °C 16.1 °C 1020.9 hPa Calm     92% 0 mm WeatherDisplay:10.37 W/m2 BKN
22:56 17.4 °C 16.1 °C 1020.9 hPa Calm     92% 0 mm WeatherDisplay:10.37 W/m2 BKN
23:01 17.4 °C 16.1 °C 1020.9 hPa Calm     92% 0 mm WeatherDisplay:10.37 W/m2 BKN
23:06 17.4 °C 16.1 °C 1020.9 hPa Calm     92% 0 mm WeatherDisplay:10.37 W/m2 BKN
23:11 17.5 °C 16.2 °C 1020.9 hPa Calm     92% 0 mm WeatherDisplay:10.37 W/m2 BKN
23:21 17.5 °C 16.2 °C 1020.9 hPa Calm     92% 0 mm WeatherDisplay:10.37 W/m2 BKN
23:22 17.4 °C 16.1 °C 1020.9 hPa Calm     92% 0 mm WeatherDisplay:10.37 W/m2 BKN
23:28 17.4 °C 16.1 °C 1020.9 hPa Calm     92% 0 mm WeatherDisplay:10.37 W/m2 BKN
23:32 17.5 °C 16.2 °C 1021.2 hPa Calm     92% 0 mm WeatherDisplay:10.37 W/m2 BKN
23:37 17.4 °C 16.1 °C 1021.2 hPa Calm     92% 0 mm WeatherDisplay:10.37 W/m2 BKN
23:41 17.4 °C 16.1 °C 1021.2 hPa Calm     92% 0 mm WeatherDisplay:10.37 W/m2 BKN
23:46 17.3 °C 16 °C 1020.9 hPa Calm     92% 0 mm WeatherDisplay:10.37 W/m2 BKN
23:51 17.3 °C 15.9 °C 1021.2 hPa Calm     92% 0 mm WeatherDisplay:10.37 W/m2 BKN
23:56 17.2 °C 15.9 °C 1021.2 hPa Calm     92% 0 mm WeatherDisplay:10.37 W/m2 BKN
Piedmont Bend
Compliments of Weather Underground - 4 mb